Time;durP1;ratioP1;P1;durP2;ratioP2;P2;SDS_P1;SDS_P2;PMS_P1;PMS_P2;Temp;Humidity;BMP_temperature;BMP_pressure;BME280_temperature;BME280_humidity;BME280_pressure;Samples;Min_cycle;Max_cycle;Signal;HPM_P1;HPM_P2
2023/05/20 00:00:30;;;;;;;72.32;68.70;;;;;;;21.51;39.01;102284.56;5003973;28;20096;-67
2023/05/20 00:02:56;;;;;;;73.38;69.60;;;;;;;21.47;39.03;102284.31;4997324;28;20391;-67
2023/05/20 00:05:22;;;;;;;72.10;68.45;;;;;;;21.44;39.22;102281.28;5011200;28;20474;-70
2023/05/20 00:07:47;;;;;;;70.90;67.50;;;;;;;21.42;39.50;102283.50;5005446;28;20041;-67
2023/05/20 00:10:13;;;;;;;73.93;70.32;;;;;;;21.37;39.12;102287.88;5004097;28;20060;-67
2023/05/20 00:12:38;;;;;;;73.85;70.13;;;;;;;21.35;39.57;102283.78;5017326;28;20132;-68
2023/05/20 00:15:05;;;;;;;72.38;68.95;;;;;;;21.32;39.59;102284.34;5023360;28;20500;-68
2023/05/20 00:17:30;;;;;;;71.38;67.90;;;;;;;21.28;39.74;102285.97;5024143;28;20072;-68
2023/05/20 00:19:56;;;;;;;73.10;69.43;;;;;;;21.26;39.45;102279.94;5003886;28;20042;-68
2023/05/20 00:22:21;;;;;;;71.47;67.80;;;;;;;21.23;39.29;102286.81;5013180;28;20049;-67
2023/05/20 00:24:47;;;;;;;72.43;68.85;;;;;;;21.20;39.33;102287.38;4998820;28;20042;-68
2023/05/20 00:27:12;;;;;;;69.68;66.32;;;;;;;21.16;39.31;102284.31;5010227;28;20040;-69
2023/05/20 00:29:38;;;;;;;70.00;66.50;;;;;;;21.13;39.36;102278.56;5009902;28;20029;-68
2023/05/20 00:32:03;;;;;;;70.65;66.97;;;;;;;21.09;39.52;102270.06;5017411;28;20386;-67
2023/05/20 00:34:29;;;;;;;69.38;65.97;;;;;;;21.07;39.48;102277.75;4994128;28;20042;-67
2023/05/20 00:36:54;;;;;;;73.45;69.65;;;;;;;21.03;39.69;102273.91;5012707;28;20081;-67
2023/05/20 00:39:20;;;;;;;67.57;64.28;;;;;;;21.00;39.82;102274.47;5007895;28;20470;-67
2023/05/20 00:41:45;;;;;;;66.80;63.70;;;;;;;20.98;39.46;102281.34;5014417;28;20033;-71
2023/05/20 00:44:11;;;;;;;70.40;66.78;;;;;;;20.95;39.78;102279.97;4997504;28;20172;-68
2023/05/20 00:46:36;;;;;;;70.00;66.53;;;;;;;20.92;39.50;102277.78;5016150;28;20078;-68
2023/05/20 00:49:02;;;;;;;70.10;66.47;;;;;;;20.89;40.06;102270.91;5012209;28;20031;-68
2023/05/20 00:51:27;;;;;;;69.22;65.57;;;;;;;20.87;39.76;102275.03;5007854;28;20069;-68
2023/05/20 00:53:53;;;;;;;70.40;66.85;;;;;;;20.82;39.73;102269.53;5006288;28;20087;-68
2023/05/20 00:56:20;;;;;;;67.13;63.92;;;;;;;20.80;40.11;102267.06;5000307;28;20395;-68
2023/05/20 00:58:46;;;;;;;69.13;65.68;;;;;;;20.78;39.86;102272.00;5002041;28;20397;-70
2023/05/20 01:01:12;;;;;;;68.47;65.00;;;;;;;20.74;40.11;102270.91;5007930;28;20065;-68
2023/05/20 01:03:37;;;;;;;69.63;66.20;;;;;;;20.71;40.15;102269.53;5021971;28;20042;-71
2023/05/20 01:06:03;;;;;;;68.32;64.72;;;;;;;20.68;40.24;102272.00;5000981;28;20030;-70
2023/05/20 01:08:28;;;;;;;67.70;64.20;;;;;;;20.65;39.88;102267.88;5016705;28;20111;-68
2023/05/20 01:11:03;;;;;;;68.05;64.55;;;;;;;20.63;39.92;102269.25;5001021;28;20098;-69
2023/05/20 01:13:35;;;;;;;65.30;62.10;;;;;;;20.60;39.88;102265.13;5018313;28;20116;-69
2023/05/20 01:16:03;;;;;;;66.30;62.90;;;;;;;20.57;39.78;102260.19;5024435;28;20399;-69
2023/05/20 01:18:30;;;;;;;64.53;61.17;;;;;;;20.55;40.37;102261.56;5006844;28;20041;-68
2023/05/20 01:21:00;;;;;;;67.47;64.03;;;;;;;20.51;40.18;102255.75;5007859;28;20038;-68
2023/05/20 01:23:52;;;;;;;64.93;61.67;;;;;;;20.48;40.14;102253.56;5013619;28;20041;-68
2023/05/20 01:26:18;;;;;;;64.50;60.90;;;;;;;20.44;40.39;102260.69;5007396;28;20045;-68
2023/05/20 01:28:43;;;;;;;65.10;61.63;;;;;;;20.41;40.33;102258.47;4998564;28;20035;-69
2023/05/20 01:31:24;;;;;;;63.90;60.85;;;;;;;20.38;40.08;102261.78;5021927;28;20101;-69
2023/05/20 01:33:54;;;;;;;64.43;61.40;;;;;;;20.35;40.37;102257.66;5015997;28;20034;-74
2023/05/20 01:36:20;;;;;;;63.33;59.88;;;;;;;20.34;40.59;102255.19;5006096;28;20022;-69
2023/05/20 01:38:48;;;;;;;63.50;60.13;;;;;;;20.29;40.48;102254.09;5023862;28;20045;-68
2023/05/20 01:41:14;;;;;;;65.07;61.78;;;;;;;20.27;40.47;102256.25;5016513;28;20182;-69
2023/05/20 01:43:40;;;;;;;64.68;61.22;;;;;;;20.24;40.60;102254.06;5002979;28;20474;-68
2023/05/20 01:46:06;;;;;;;66.30;63.15;;;;;;;20.22;40.66;102250.75;4998846;28;20039;-71
2023/05/20 01:48:31;;;;;;;64.47;61.40;;;;;;;20.19;40.77;102254.06;4998784;28;20039;-67
2023/05/20 01:50:56;;;;;;;68.40;64.72;;;;;;;20.17;40.78;102244.44;4990661;28;20486;-68
2023/05/20 01:53:22;;;;;;;63.15;59.95;;;;;;;20.14;40.27;102243.06;5010126;28;20041;-67
2023/05/20 01:55:47;;;;;;;64.10;61.03;;;;;;;20.11;40.61;102240.88;5011717;28;20493;-68
2023/05/20 01:58:13;;;;;;;64.68;61.38;;;;;;;20.09;40.56;102237.56;5014965;28;20037;-68
2023/05/20 02:00:38;;;;;;;65.72;62.60;;;;;;;20.06;40.34;102236.19;5014072;28;20034;-71
2023/05/20 02:03:03;;;;;;;65.47;62.08;;;;;;;20.04;40.36;102234.81;4998937;28;20046;-68
2023/05/20 02:05:29;;;;;;;62.88;59.83;;;;;;;20.01;40.91;102236.19;5004401;28;20117;-68
2023/05/20 02:07:55;;;;;;;63.42;59.67;;;;;;;19.99;40.83;102230.13;5013172;28;20048;-69
2023/05/20 02:10:20;;;;;;;62.03;58.72;;;;;;;19.97;40.61;102232.31;5007526;28;20544;-69
2023/05/20 02:12:46;;;;;;;62.40;59.40;;;;;;;19.93;40.96;102236.69;5014220;28;20045;-69
2023/05/20 02:15:12;;;;;;;63.88;60.70;;;;;;;19.92;41.00;102234.22;5003477;28;20034;-69
2023/05/20 02:17:38;;;;;;;62.47;59.28;;;;;;;19.88;40.85;102233.94;5013213;28;20085;-72
2023/05/20 02:20:06;;;;;;;63.22;59.95;;;;;;;19.85;40.98;102226.25;5015778;28;20231;-68
2023/05/20 02:22:32;;;;;;;62.30;58.00;;;;;;;19.82;40.57;102224.06;5004431;28;20097;-68
2023/05/20 02:24:57;;;;;;;61.47;58.22;;;;;;;19.79;40.71;102222.66;5006351;28;20032;-70
2023/05/20 02:27:22;;;;;;;60.83;57.75;;;;;;;19.76;41.15;102222.41;5012220;28;20038;-69
2023/05/20 02:29:48;;;;;;;61.28;58.28;;;;;;;19.74;40.94;102219.91;5006106;28;20382;-67
2023/05/20 02:32:13;;;;;;;61.78;58.58;;;;;;;19.72;41.07;102227.56;4997893;28;20031;-68
2023/05/20 02:34:38;;;;;;;63.03;59.55;;;;;;;19.69;40.66;102221.81;5021032;28;20503;-69
2023/05/20 02:37:04;;;;;;;60.97;58.08;;;;;;;19.66;41.22;102223.16;5009141;28;20108;-70
2023/05/20 02:39:29;;;;;;;62.25;59.05;;;;;;;19.64;41.04;102225.31;5009113;28;20080;-71
2023/05/20 02:41:55;;;;;;;63.15;59.83;;;;;;;19.61;41.19;102225.88;5013338;28;20042;-68
2023/05/20 02:44:20;;;;;;;59.97;56.78;;;;;;;19.58;41.32;102227.22;5016265;28;20044;-70
2023/05/20 02:46:46;;;;;;;61.90;58.65;;;;;;;19.55;41.25;102222.25;5005893;28;20434;-70
2023/05/20 02:49:12;;;;;;;60.83;57.25;;;;;;;19.52;41.22;102225.53;5012420;28;20434;-68
2023/05/20 02:51:39;;;;;;;59.72;56.90;;;;;;;19.49;41.24;102223.34;5017746;28;20045;-69
2023/05/20 02:54:04;;;;;;;60.50;57.05;;;;;;;19.47;41.44;102225.50;5022921;28;20516;-69
2023/05/20 02:56:31;;;;;;;61.63;58.22;;;;;;;19.45;41.53;102224.94;5014370;28;20061;-70
2023/05/20 02:58:56;;;;;;;59.35;56.42;;;;;;;19.43;41.02;102229.88;5014561;28;20072;-69
2023/05/20 03:01:22;;;;;;;61.92;58.83;;;;;;;19.41;41.02;102221.09;4995930;28;20065;-69
2023/05/20 03:03:47;;;;;;;60.90;57.47;;;;;;;19.36;41.52;102219.16;4994698;28;20117;-69
2023/05/20 03:06:13;;;;;;;61.83;58.63;;;;;;;19.35;41.16;102219.41;4995348;28;20026;-69
2023/05/20 03:08:38;;;;;;;59.38;56.33;;;;;;;19.32;41.63;102215.28;4998123;28;20450;-68
2023/05/20 03:11:04;;;;;;;61.20;58.00;;;;;;;19.31;41.60;102223.78;5008660;28;20566;-69
2023/05/20 03:13:29;;;;;;;58.95;56.05;;;;;;;19.27;41.37;102220.75;5008090;28;20539;-72
2023/05/20 03:15:55;;;;;;;60.13;56.72;;;;;;;19.25;41.65;102231.13;5029172;28;20095;-70
2023/05/20 03:18:20;;;;;;;59.67;56.63;;;;;;;19.22;41.56;102227.00;4999298;28;20041;-70
2023/05/20 03:20:46;;;;;;;58.70;55.83;;;;;;;19.19;41.72;102230.28;5006825;28;20177;-67
2023/05/20 03:23:11;;;;;;;59.70;56.30;;;;;;;19.16;41.57;102222.59;5004318;28;20513;-69
2023/05/20 03:25:37;;;;;;;58.22;55.33;;;;;;;19.14;41.67;102221.22;5006791;28;20045;-68
2023/05/20 03:28:05;;;;;;;58.75;55.67;;;;;;;19.12;41.89;102223.41;5004350;28;20481;-69
2023/05/20 03:30:30;;;;;;;60.45;57.45;;;;;;;19.08;41.79;102222.28;5012458;28;20034;-68
2023/05/20 03:32:57;;;;;;;58.05;55.05;;;;;;;19.07;41.42;102223.34;5001445;28;20180;-71
2023/05/20 03:35:22;;;;;;;58.05;55.05;;;;;;;19.03;42.13;102218.41;5016503;28;20032;-68
2023/05/20 03:37:50;;;;;;;56.58;53.72;;;;;;;19.01;41.47;102228.81;5023823;28;20116;-70
2023/05/20 03:40:16;;;;;;;57.08;54.08;;;;;;;19.00;41.76;102218.13;5006438;28;20030;-68
2023/05/20 03:42:41;;;;;;;57.95;54.55;;;;;;;18.97;41.93;102213.16;5000579;28;20030;-69
2023/05/20 03:45:07;;;;;;;56.55;53.67;;;;;;;18.94;42.19;102219.16;5015016;28;20048;-71
2023/05/20 03:47:32;;;;;;;55.47;52.67;;;;;;;18.93;41.98;102214.78;4997832;28;20066;-70
2023/05/20 03:49:58;;;;;;;56.60;53.55;;;;;;;18.90;42.08;102209.81;4994838;28;20042;-68
2023/05/20 03:52:23;;;;;;;59.30;55.88;;;;;;;18.87;42.13;102216.66;4999970;28;20033;-68
2023/05/20 03:54:49;;;;;;;56.75;53.63;;;;;;;18.85;41.98;102216.09;5001535;28;20073;-68
2023/05/20 03:57:14;;;;;;;57.83;54.83;;;;;;;18.82;42.24;102219.34;5018331;28;20105;-68
2023/05/20 03:59:40;;;;;;;54.92;52.13;;;;;;;18.79;41.84;102214.41;5019991;28;20034;-70
2023/05/20 04:02:07;;;;;;;57.90;54.72;;;;;;;18.77;42.04;102209.22;5009727;28;20380;-68
2023/05/20 04:04:33;;;;;;;58.80;55.90;;;;;;;18.75;42.07;102211.38;5009862;28;20049;-69
2023/05/20 04:06:59;;;;;;;56.45;53.55;;;;;;;18.74;42.03;102228.03;5007188;28;20034;-69
2023/05/20 04:09:25;;;;;;;55.53;52.55;;;;;;;18.71;42.25;102228.53;5012427;28;20335;-68
2023/05/20 04:11:51;;;;;;;55.70;52.35;;;;;;;18.69;42.29;102217.03;5012306;28;20498;-68
2023/05/20 04:14:17;;;;;;;55.72;52.63;;;;;;;18.67;42.04;102216.47;5002544;28;20046;-69
2023/05/20 04:16:43;;;;;;;54.50;51.60;;;;;;;18.63;42.38;102213.44;5008698;28;20038;-69
2023/05/20 04:19:09;;;;;;;56.78;53.67;;;;;;;18.61;42.48;102218.34;5000631;28;20030;-68
2023/05/20 04:21:35;;;;;;;54.83;51.92;;;;;;;18.59;42.36;102221.31;4994704;28;20034;-71
2023/05/20 04:24:01;;;;;;;55.92;52.92;;;;;;;18.57;42.08;102219.94;5001613;28;20045;-69
2023/05/20 04:26:26;;;;;;;55.38;52.58;;;;;;;18.55;42.36;102222.13;5006617;28;20250;-68
2023/05/20 04:28:51;;;;;;;55.53;52.72;;;;;;;18.53;42.48;102224.28;5000743;28;20447;-68
2023/05/20 04:31:17;;;;;;;57.97;54.83;;;;;;;18.50;42.50;102213.88;5009586;28;20458;-69
2023/05/20 04:33:43;;;;;;;55.17;52.28;;;;;;;18.48;42.28;102219.59;5011157;28;20065;-69
2023/05/20 04:36:14;;;;;;;54.72;51.97;;;;;;;18.46;42.59;102219.03;5013638;28;20042;-70
2023/05/20 04:38:41;;;;;;;55.50;52.33;;;;;;;18.45;42.58;102222.03;5010642;28;20037;-68
2023/05/20 04:41:06;;;;;;;52.53;49.92;;;;;;;18.42;42.28;102220.66;4993220;28;20042;-69
2023/05/20 04:43:32;;;;;;;55.33;52.63;;;;;;;18.40;42.48;102224.72;5006316;28;20034;-68
2023/05/20 04:46:00;;;;;;;55.80;52.88;;;;;;;18.37;42.55;102220.59;5004342;28;20102;-68
2023/05/20 04:48:26;;;;;;;55.50;52.60;;;;;;;18.36;42.63;102216.19;5006290;28;20149;-68
2023/05/20 04:50:53;;;;;;;55.58;52.80;;;;;;;18.33;42.91;102216.72;5005316;28;20038;-69
2023/05/20 04:53:20;;;;;;;55.05;51.92;;;;;;;18.31;42.69;102219.69;5004963;28;20062;-70
2023/05/20 04:55:46;;;;;;;54.95;52.08;;;;;;;18.31;42.56;102218.88;5011085;28;20452;-70
2023/05/20 04:58:14;;;;;;;54.92;51.88;;;;;;;18.29;42.88;102219.13;5002342;28;20122;-68
2023/05/20 05:00:44;;;;;;;52.15;49.60;;;;;;;18.28;42.77;102216.66;5002210;28;20052;-69
2023/05/20 05:03:11;;;;;;;54.33;51.42;;;;;;;18.26;42.72;102208.72;4994771;28;20382;-73
2023/05/20 05:05:37;;;;;;;52.60;49.65;;;;;;;18.24;43.14;102210.88;4998979;28;20109;-70
2023/05/20 05:08:04;;;;;;;55.47;52.58;;;;;;;18.24;42.91;102201.84;5003898;28;20510;-68
2023/05/20 05:10:30;;;;;;;53.70;50.70;;;;;;;18.22;42.81;102198.53;5005952;28;20054;-68
2023/05/20 05:12:56;;;;;;;55.72;52.85;;;;;;;18.22;42.71;102198.53;5010285;28;20045;-68
2023/05/20 05:15:22;;;;;;;55.05;52.35;;;;;;;18.21;42.87;102205.09;5012589;28;20044;-70
2023/05/20 05:17:47;;;;;;;53.75;50.45;;;;;;;18.19;42.82;102202.63;4997810;28;20045;-69
2023/05/20 05:20:13;;;;;;;55.40;52.50;;;;;;;18.17;43.17;102213.00;5010158;28;20038;-68
2023/05/20 05:22:40;;;;;;;51.75;49.15;;;;;;;18.16;42.86;102209.44;4994443;28;20083;-68
2023/05/20 05:25:06;;;;;;;51.92;49.38;;;;;;;18.15;43.05;102205.06;5007539;28;20034;-68
2023/05/20 05:27:32;;;;;;;54.28;51.35;;;;;;;18.16;43.24;102212.16;4993972;28;20038;-68
2023/05/20 05:29:57;;;;;;;53.42;50.22;;;;;;;18.15;42.70;102209.72;5010491;28;20052;-69
2023/05/20 05:32:22;;;;;;;55.13;52.35;;;;;;;18.13;43.30;102201.75;5038194;28;20693;-68
2023/05/20 05:34:48;;;;;;;53.25;50.40;;;;;;;18.15;43.18;102201.50;5013547;28;20040;-70
2023/05/20 05:37:13;;;;;;;55.10;52.13;;;;;;;18.15;43.16;102196.03;5014574;28;20474;-68
2023/05/20 05:39:39;;;;;;;52.40;49.90;;;;;;;18.13;42.85;102203.66;4993731;28;20100;-68
2023/05/20 05:42:05;;;;;;;53.20;50.50;;;;;;;18.14;42.86;102199.84;4993258;28;20038;-69
2023/05/20 05:44:30;;;;;;;53.33;50.03;;;;;;;18.13;43.28;102207.22;5013054;28;20037;-69
2023/05/20 05:46:56;;;;;;;52.35;49.65;;;;;;;18.14;43.23;102214.34;5021649;28;20061;-67
2023/05/20 05:49:21;;;;;;;56.00;52.67;;;;;;;18.14;43.15;102197.94;4995921;28;20105;-71
2023/05/20 05:51:47;;;;;;;52.83;49.88;;;;;;;18.14;43.42;102206.16;4997716;28;20041;-68
2023/05/20 05:54:12;;;;;;;53.22;50.42;;;;;;;18.14;43.12;102208.03;4995618;28;20041;-68
2023/05/20 05:56:37;;;;;;;51.95;49.10;;;;;;;18.13;43.11;102209.94;4994504;28;20035;-69
2023/05/20 05:59:03;;;;;;;52.42;49.63;;;;;;;18.14;43.02;102210.78;4995687;28;20030;-69
2023/05/20 06:01:29;;;;;;;56.55;53.28;;;;;;;18.14;43.42;102206.16;5009748;28;20034;-67
2023/05/20 06:03:54;;;;;;;56.20;53.38;;;;;;;18.17;43.23;102210.28;5002635;28;20536;-71
2023/05/20 06:06:20;;;;;;;52.67;50.17;;;;;;;18.16;43.09;102214.91;5012384;28;20041;-69
2023/05/20 06:08:45;;;;;;;51.97;48.85;;;;;;;18.17;43.50;102211.09;5029953;28;20047;-70
2023/05/20 06:11:11;;;;;;;52.35;49.65;;;;;;;18.17;43.34;102202.06;5009965;28;20140;-70
2023/05/20 06:13:36;;;;;;;54.05;51.25;;;;;;;18.18;43.45;102198.25;5019662;28;20089;-68
2023/05/20 06:16:02;;;;;;;53.45;50.75;;;;;;;18.19;43.32;102202.63;5019352;28;20112;-69
2023/05/20 06:18:27;;;;;;;53.35;50.55;;;;;;;18.21;43.46;102207.84;5019768;28;20033;-67
2023/05/20 06:20:55;;;;;;;53.67;50.97;;;;;;;18.21;43.81;102210.56;5029941;28;20116;-69
2023/05/20 06:23:20;;;;;;;55.27;52.27;;;;;;;18.24;43.84;102204.59;5022339;28;20038;-68
2023/05/20 06:25:47;;;;;;;52.50;49.60;;;;;;;18.24;43.62;102196.38;4999830;28;20304;-68
2023/05/20 06:28:13;;;;;;;52.58;49.67;;;;;;;18.24;43.78;102194.47;5005660;28;20080;-68
2023/05/20 06:30:38;;;;;;;50.75;48.15;;;;;;;18.25;43.62;102187.09;5004926;28;20041;-68
2023/05/20 06:33:03;;;;;;;52.85;50.03;;;;;;;18.26;43.77;102186.00;5010762;28;20042;-67
2023/05/20 06:35:29;;;;;;;54.72;51.95;;;;;;;18.26;43.86;102181.34;5008330;28;20038;-68
2023/05/20 06:37:54;;;;;;;51.25;48.80;;;;;;;18.26;44.02;102177.81;5016084;28;20029;-68
2023/05/20 06:40:20;;;;;;;53.45;50.72;;;;;;;18.27;44.13;102183.03;5021071;28;20440;-68
2023/05/20 06:42:45;;;;;;;53.47;50.47;;;;;;;18.30;43.91;102178.94;5013488;28;20045;-70
2023/05/20 06:45:12;;;;;;;50.92;48.35;;;;;;;18.33;44.32;102183.91;5000460;28;20037;-70
2023/05/20 06:47:38;;;;;;;55.15;52.17;;;;;;;18.36;43.93;102175.97;4996325;28;20509;-68
2023/05/20 06:50:03;;;;;;;52.90;49.78;;;;;;;18.39;44.01;102177.38;4998356;28;20034;-69
2023/05/20 06:52:29;;;;;;;53.65;50.67;;;;;;;18.43;44.44;102166.75;5020453;28;20029;-68
2023/05/20 06:54:54;;;;;;;52.92;50.05;;;;;;;18.46;44.47;102177.97;5014910;28;20466;-68
2023/05/20 06:57:21;;;;;;;52.15;49.63;;;;;;;18.48;44.54;102169.53;5028756;28;20045;-73
2023/05/20 06:59:46;;;;;;;52.97;49.83;;;;;;;18.51;44.32;102171.72;5012984;28;20038;-69
2023/05/20 07:02:12;;;;;;;53.03;50.30;;;;;;;18.54;44.48;102176.69;5017223;28;20042;-68
2023/05/20 07:04:37;;;;;;;56.05;52.88;;;;;;;18.57;44.48;102177.00;5016694;28;20046;-68
2023/05/20 07:07:03;;;;;;;52.28;49.78;;;;;;;18.60;45.21;102172.91;4997809;28;20065;-68
2023/05/20 07:09:28;;;;;;;64.05;60.65;;;;;;;18.62;44.84;102167.16;5016054;28;20068;-68
2023/05/20 07:11:53;;;;;;;54.72;51.67;;;;;;;18.64;44.67;102168.53;5028605;28;20470;-68
2023/05/20 07:14:19;;;;;;;53.40;50.80;;;;;;;18.66;44.71;102163.63;5013709;28;20084;-68
2023/05/20 07:16:44;;;;;;;54.58;51.78;;;;;;;18.69;45.13;102162.28;5000079;28;20431;-68
2023/05/20 07:19:10;;;;;;;56.55;53.70;;;;;;;18.71;44.88;102160.94;4997926;28;20525;-69
2023/05/20 07:21:35;;;;;;;54.40;51.65;;;;;;;18.75;45.05;102164.00;5016440;28;20030;-68
2023/05/20 07:24:01;;;;;;;53.55;50.85;;;;;;;18.79;44.38;102159.66;4999539;28;20042;-69
2023/05/20 07:26:26;;;;;;;57.80;54.65;;;;;;;18.81;45.20;102155.56;5008740;28;20038;-69
2023/05/20 07:28:51;;;;;;;57.28;54.22;;;;;;;18.87;44.72;102152.84;5026996;28;20489;-68
2023/05/20 07:31:17;;;;;;;56.10;53.30;;;;;;;18.91;44.36;102143.03;5001321;28;20065;-68
2023/05/20 07:33:42;;;;;;;54.67;51.63;;;;;;;18.94;44.85;102154.28;5019423;28;20032;-70
2023/05/20 07:36:08;;;;;;;59.22;56.22;;;;;;;18.98;45.33;102147.19;5014141;28;20049;-69
2023/05/20 07:38:33;;;;;;;58.60;55.70;;;;;;;19.02;45.52;102156.53;5012906;28;20033;-69
2023/05/20 07:40:59;;;;;;;54.55;51.95;;;;;;;19.07;45.19;102146.69;5012453;28;20080;-69
2023/05/20 07:43:24;;;;;;;57.28;54.47;;;;;;;19.12;45.18;102143.97;5011645;28;20129;-73
2023/05/20 07:45:49;;;;;;;57.20;54.38;;;;;;;19.18;44.68;102143.72;4994020;28;20402;-69
2023/05/20 07:48:15;;;;;;;57.33;54.53;;;;;;;19.25;45.07;102138.00;5013658;28;20034;-68
2023/05/20 07:50:40;;;;;;;60.80;57.63;;;;;;;19.30;45.30;102140.75;5007311;28;20073;-69
2023/05/20 07:53:06;;;;;;;59.83;56.83;;;;;;;19.36;45.14;102136.16;4998808;28;20092;-69
2023/05/20 07:55:35;;;;;;;64.32;60.53;;;;;;;19.40;45.52;102140.81;5012376;28;20045;-71
2023/05/20 07:58:01;;;;;;;59.22;56.33;;;;;;;19.46;45.04;102136.19;5021939;28;20044;-68
2023/05/20 08:00:26;;;;;;;58.33;55.13;;;;;;;19.54;45.01;102134.84;5002817;28;20035;-69
2023/05/20 08:02:52;;;;;;;58.70;55.85;;;;;;;19.60;45.53;102136.50;5000536;28;20038;-70
2023/05/20 08:05:17;;;;;;;60.75;57.75;;;;;;;19.67;44.85;102131.59;4998900;28;20045;-69
2023/05/20 08:07:43;;;;;;;60.90;58.00;;;;;;;19.73;45.14;102121.47;5005280;28;20103;-69
2023/05/20 08:10:08;;;;;;;63.60;60.53;;;;;;;19.79;44.98;102120.41;5011329;28;20033;-69
2023/05/20 08:12:34;;;;;;;61.25;58.15;;;;;;;19.86;45.25;102118.22;5025204;28;20046;-68
2023/05/20 08:14:59;;;;;;;60.03;57.13;;;;;;;19.94;45.36;102116.88;5013954;28;20442;-68
2023/05/20 08:17:25;;;;;;;63.55;60.55;;;;;;;20.02;45.08;102121.81;5017988;28;20034;-69
2023/05/20 08:19:50;;;;;;;61.65;58.65;;;;;;;20.10;44.69;102122.06;5023785;28;20042;-69
2023/05/20 08:22:16;;;;;;;63.95;60.72;;;;;;;20.17;45.64;102112.75;5024095;28;20057;-67
2023/05/20 08:24:41;;;;;;;65.35;61.63;;;;;;;20.24;45.91;102114.13;5020779;28;20113;-68
2023/05/20 08:27:06;;;;;;;66.25;63.13;;;;;;;20.32;45.02;102115.50;5019142;28;20079;-68
2023/05/20 08:29:32;;;;;;;61.60;58.75;;;;;;;20.40;45.37;102114.13;5008518;28;20506;-68
2023/05/20 08:31:57;;;;;;;67.38;63.60;;;;;;;20.46;45.50;102113.84;5011309;28;20041;-73
2023/05/20 08:34:23;;;;;;;67.00;63.70;;;;;;;20.56;44.19;102114.97;5003747;28;20093;-69
2023/05/20 08:36:48;;;;;;;67.22;64.03;;;;;;;20.63;43.76;102108.09;4994395;28;20038;-70
2023/05/20 08:39:14;;;;;;;67.50;64.13;;;;;;;20.71;44.49;102102.03;5004950;28;20081;-69
2023/05/20 08:41:39;;;;;;;68.75;65.45;;;;;;;20.82;41.68;102105.59;5005793;28;20042;-68
2023/05/20 08:44:07;;;;;;;67.07;63.88;;;;;;;20.93;42.31;102106.38;5013260;28;20037;-68
2023/05/20 08:46:34;;;;;;;67.93;64.78;;;;;;;21.00;43.27;102115.13;5002254;28;20089;-69
2023/05/20 08:49:01;;;;;;;67.10;63.75;;;;;;;21.08;43.43;102108.25;4996881;28;20268;-66
2023/05/20 08:51:26;;;;;;;68.28;64.45;;;;;;;21.14;43.46;102109.84;4999885;28;20494;-70
2023/05/20 08:53:53;;;;;;;67.57;64.13;;;;;;;21.22;42.06;102103.81;4997479;28;20038;-69
2023/05/20 08:56:20;;;;;;;67.38;64.18;;;;;;;21.31;40.98;102099.34;4992637;28;20030;-68
2023/05/20 08:58:46;;;;;;;70.50;67.10;;;;;;;21.38;41.85;102096.28;5002540;28;20038;-67
2023/05/20 09:01:11;;;;;;;68.32;65.22;;;;;;;21.45;41.50;102094.09;5005205;28;20091;-67
2023/05/20 09:03:37;;;;;;;71.25;67.38;;;;;;;21.52;41.17;102094.59;5018475;28;20037;-68
2023/05/20 09:06:07;;;;;;;71.10;67.80;;;;;;;21.61;40.43;102087.38;5007947;28;20034;-68
2023/05/20 09:08:33;;;;;;;70.00;66.32;;;;;;;21.70;39.70;102093.13;4992780;28;20027;-67
2023/05/20 09:10:59;;;;;;;70.95;67.65;;;;;;;21.78;40.84;102088.94;4992694;28;20509;-68
2023/05/20 09:13:26;;;;;;;71.95;68.60;;;;;;;21.87;41.58;102078.13;5004065;28;20033;-68
2023/05/20 09:15:51;;;;;;;75.07;71.57;;;;;;;21.94;41.56;102079.44;5000892;28;20483;-69
2023/05/20 09:18:17;;;;;;;71.95;68.38;;;;;;;22.04;40.53;102084.88;4992151;28;20121;-67
2023/05/20 09:20:46;;;;;;;72.15;68.80;;;;;;;22.14;40.96;102081.22;4992177;28;20085;-69
2023/05/20 09:23:11;;;;;;;75.38;71.88;;;;;;;22.24;40.95;102085.84;5005631;28;20386;-68
2023/05/20 09:25:37;;;;;;;73.25;69.82;;;;;;;22.32;40.70;102084.41;5009220;28;20462;-70
2023/05/20 09:28:08;;;;;;;75.85;72.15;;;;;;;22.41;40.08;102080.72;4992831;28;20030;-68
2023/05/20 09:30:34;;;;;;;76.00;72.40;;;;;;;22.49;41.08;102075.72;4993457;28;20062;-66
2023/05/20 09:33:03;;;;;;;76.38;72.90;;;;;;;22.57;41.86;102070.38;5007279;28;20736;-69
2023/05/20 09:35:29;;;;;;;77.72;74.03;;;;;;;22.65;41.58;102075.28;5004506;28;20035;-67
2023/05/20 09:37:55;;;;;;;80.28;76.60;;;;;;;22.73;42.32;102068.28;5016331;28;20046;-70
2023/05/20 09:40:26;;;;;;;82.32;78.63;;;;;;;22.81;42.26;102070.41;5015151;28;20030;-69
2023/05/20 09:42:52;;;;;;;79.05;75.35;;;;;;;22.90;42.67;102067.81;5006703;28;20458;-70
2023/05/20 09:45:17;;;;;;;82.60;78.80;;;;;;;22.98;41.72;102067.22;5011334;28;20040;-69
2023/05/20 09:47:44;;;;;;;83.18;79.40;;;;;;;23.06;40.35;102063.78;4994671;28;20030;-68
2023/05/20 09:50:10;;;;;;;81.38;77.47;;;;;;;23.16;38.96;102073.88;4992294;28;20038;-68
2023/05/20 09:52:38;;;;;;;80.07;76.15;;;;;;;23.25;38.21;102068.50;4990959;28;20494;-67
2023/05/20 09:55:05;;;;;;;81.30;77.50;;;;;;;23.34;38.10;102063.97;4997109;28;20042;-70
2023/05/20 09:57:34;;;;;;;82.93;79.10;;;;;;;23.42;38.50;102068.00;5000249;28;20038;-69
2023/05/20 10:00:00;;;;;;;87.68;83.50;;;;;;;23.50;37.66;102070.09;4991837;28;20065;-67
2023/05/20 10:02:27;;;;;;;87.32;83.22;;;;;;;23.58;37.96;102069.41;4999577;28;20030;-67
2023/05/20 10:04:55;;;;;;;86.25;82.18;;;;;;;23.67;37.71;102064.06;5007985;28;20041;-64
2023/05/20 10:07:48;;;;;;;84.43;80.68;;;;;;;23.74;41.44;102048.78;5001153;28;20030;-68
2023/05/20 10:10:39;;;;;;;85.53;81.53;;;;;;;23.82;40.33;102049.22;5003458;28;20442;-68
2023/05/20 10:13:17;;;;;;;86.13;82.10;;;;;;;23.91;40.95;102042.72;5003013;28;20511;-66
2023/05/20 10:15:58;;;;;;;87.68;83.25;;;;;;;23.98;39.70;102054.16;5005569;28;20026;-66
2023/05/20 10:18:51;;;;;;;86.88;82.68;;;;;;;24.07;38.66;102048.78;5010754;28;20040;-68
2023/05/20 10:21:24;;;;;;;85.50;81.60;;;;;;;24.14;38.18;102042.88;5005590;28;20033;-68
2023/05/20 10:23:51;;;;;;;88.88;84.90;;;;;;;24.20;38.96;102036.16;5005109;28;20022;-68
2023/05/20 10:26:16;;;;;;;89.22;84.82;;;;;;;24.26;39.07;102045.97;4995526;28;20034;-68
2023/05/20 10:28:42;;;;;;;87.72;83.72;;;;;;;24.34;39.21;102042.53;5008741;28;20041;-68
2023/05/20 10:31:21;;;;;;;87.97;83.97;;;;;;;24.42;36.87;102046.50;4999480;28;20038;-67
2023/05/20 10:33:47;;;;;;;94.18;89.68;;;;;;;24.50;37.96;102045.03;4995077;28;20061;-68
2023/05/20 10:36:27;;;;;;;91.72;87.47;;;;;;;24.56;36.51;102033.53;5007468;28;20038;-67
2023/05/20 10:38:57;;;;;;;95.15;90.65;;;;;;;24.65;37.23;102027.34;5011718;28;20561;-67
2023/05/20 10:41:27;;;;;;;90.90;86.88;;;;;;;24.71;38.47;102028.84;5006109;28;20034;-67
2023/05/20 10:44:00;;;;;;;91.07;87.07;;;;;;;24.79;39.14;102026.16;4995104;28;20495;-67
2023/05/20 10:46:25;;;;;;;97.43;92.97;;;;;;;24.86;38.07;102023.00;4999459;28;20509;-68
2023/05/20 10:48:51;;;;;;;96.70;92.45;;;;;;;24.92;37.28;102021.78;5023547;28;20042;-68
2023/05/20 10:51:16;;;;;;;94.18;89.93;;;;;;;25.00;37.33;102023.81;5012859;28;20034;-69
2023/05/20 10:53:45;;;;;;;93.40;89.25;;;;;;;25.07;36.92;102025.31;5003928;28;20065;-68
2023/05/20 10:56:19;;;;;;;94.78;90.57;;;;;;;25.13;35.91;102018.56;5013573;28;20077;-68
2023/05/20 10:58:48;;;;;;;94.45;90.25;;;;;;;25.17;35.86;102014.88;5008111;28;20034;-73
2023/05/20 11:01:15;;;;;;;96.55;92.32;;;;;;;25.23;38.57;102012.84;5011314;28;20041;-67
2023/05/20 11:03:42;;;;;;;99.03;94.72;;;;;;;25.29;37.82;102014.34;5019710;28;20025;-67
2023/05/20 11:06:14;;;;;;;95.90;91.20;;;;;;;25.35;38.58;102007.59;5002420;28;20176;-68